Mohyliv-Podil's'Kyi, Ukraine
Current Conditions -  °F | °C
As of 11:30 AM on Friday 31 Oct 2014 (Local Time) from LUBL Reporting Station
Clear Clear  
Wind Chill: 37°   Ceiling: Unl
Heat Index: 43°   Visibility: 4mi
Dew Point: 37°   Wind: 12mph
Humidity: 81%   Direction: 320°NW
Pressure: 30.24"   Gusts: NA
Location:  48.45°N, 27.79°E
Report Text: LUBL 310830Z 32010KT 6000 NSC 06/03 Q1024 R33/CLRD65
Loading
Personal Weather Stations






























Interactive Weather Map
Tropical Storm Tracking
New forecast layout! Learn more

10-Day Weather Forecast

Advertisements
Track Severe Weather on mobile